Time;durP1;ratioP1;P1;durP2;ratioP2;P2;SDS_P1;SDS_P2;PMS_P1;PMS_P2;Temp;Humidity;BMP_temperature;BMP_pressure;BME280_temperature;BME280_humidity;BME280_pressure;Samples;Min_cycle;Max_cycle;Signal;HPM_P1;HPM_P2
2023/09/20 00:00:25;;;;;;;8.32;2.38;;;;;;;17.39;100.00;100664.81;5032746;28;20037;-56
2023/09/20 00:02:53;;;;;;;9.88;2.28;;;;;;;17.39;100.00;100664.81;5032823;28;20041;-55
2023/09/20 00:05:22;;;;;;;9.48;2.28;;;;;;;17.38;100.00;100668.47;5032423;28;20140;-55
2023/09/20 00:07:54;;;;;;;6.95;2.08;;;;;;;17.38;100.00;100662.28;5031387;28;20049;-55
2023/09/20 00:10:23;;;;;;;8.73;2.00;;;;;;;17.43;100.00;100669.84;5031987;28;20556;-55
2023/09/20 00:12:51;;;;;;;6.82;2.05;;;;;;;17.38;100.00;100667.59;5032980;28;20052;-56
2023/09/20 00:15:21;;;;;;;6.88;1.98;;;;;;;17.40;100.00;100661.16;5032196;28;20053;-57
2023/09/20 00:17:49;;;;;;;9.10;1.90;;;;;;;17.38;100.00;100670.28;5032298;28;20041;-55
2023/09/20 00:20:19;;;;;;;7.07;1.90;;;;;;;17.41;100.00;100672.66;5031958;28;20500;-56
2023/09/20 00:22:48;;;;;;;7.50;2.08;;;;;;;17.44;100.00;100668.84;5033590;28;20516;-55
2023/09/20 00:25:16;;;;;;;7.57;2.05;;;;;;;17.40;100.00;100666.47;5031703;28;20045;-57
2023/09/20 00:27:46;;;;;;;10.82;2.30;;;;;;;17.47;100.00;100672.03;5032349;28;20111;-55
2023/09/20 00:30:17;;;;;;;8.48;2.35;;;;;;;17.42;100.00;100673.47;5031655;28;20534;-55
2023/09/20 00:32:47;;;;;;;8.43;1.90;;;;;;;17.42;100.00;100668.97;5032233;28;20064;-56
2023/09/20 00:35:17;;;;;;;9.13;2.50;;;;;;;17.50;100.00;100674.38;5030887;28;20073;-55
2023/09/20 00:37:46;;;;;;;7.75;2.30;;;;;;;17.47;100.00;100660.59;5045329;28;20136;-56
2023/09/20 00:40:17;;;;;;;11.40;2.35;;;;;;;17.42;100.00;100668.16;5045722;28;20127;-55
2023/09/20 00:42:47;;;;;;;8.75;2.45;;;;;;;17.46;100.00;100658.91;5048918;28;20059;-56
2023/09/20 00:45:17;;;;;;;9.00;2.38;;;;;;;17.40;100.00;100666.47;5050333;28;20048;-56
2023/09/20 00:47:51;;;;;;;11.00;2.42;;;;;;;17.42;100.00;100661.00;5050910;28;20064;-55
2023/09/20 00:50:20;;;;;;;8.10;2.30;;;;;;;17.42;100.00;100662.84;5050336;28;20117;-56
2023/09/20 00:52:51;;;;;;;8.48;2.08;;;;;;;17.44;100.00;100656.41;5049359;28;20110;-56
2023/09/20 00:55:21;;;;;;;8.40;2.50;;;;;;;17.39;100.00;100658.66;5049833;28;20053;-57
2023/09/20 00:57:52;;;;;;;9.10;2.00;;;;;;;17.34;100.00;100651.16;5052074;28;20139;-55
2023/09/20 01:00:21;;;;;;;7.93;2.47;;;;;;;17.33;100.00;100653.94;5049093;28;20049;-54
2023/09/20 01:02:53;;;;;;;7.78;2.25;;;;;;;17.30;100.00;100655.09;5050384;28;20037;-57
2023/09/20 01:05:22;;;;;;;7.38;2.25;;;;;;;17.27;100.00;100651.88;5050610;28;20059;-55
2023/09/20 01:07:51;;;;;;;6.45;2.08;;;;;;;17.30;100.00;100659.53;5053245;28;20060;-56
2023/09/20 01:10:22;;;;;;;8.27;2.10;;;;;;;17.27;100.00;100660.69;5051308;28;20053;-55
2023/09/20 01:12:54;;;;;;;8.63;2.20;;;;;;;17.22;100.00;100663.78;5050717;28;20049;-56
2023/09/20 01:15:23;;;;;;;9.20;2.78;;;;;;;17.28;100.00;100659.69;5050609;28;20484;-55
2023/09/20 01:17:55;;;;;;;7.82;2.08;;;;;;;17.21;100.00;100650.66;5052355;28;20033;-55
2023/09/20 01:20:24;;;;;;;6.68;2.30;;;;;;;17.15;100.00;100653.88;5052334;28;20041;-54
2023/09/20 01:22:57;;;;;;;7.07;1.90;;;;;;;17.06;100.00;100651.13;5051020;28;20545;-55
2023/09/20 01:25:27;;;;;;;6.10;2.03;;;;;;;17.04;100.00;100652.25;5047849;28;20051;-56
2023/09/20 01:27:57;;;;;;;9.70;2.00;;;;;;;16.97;100.00;100649.34;5050200;28;20072;-54
2023/09/20 01:30:27;;;;;;;8.57;2.08;;;;;;;16.97;100.00;100653.84;5048834;28;20041;-56
2023/09/20 01:32:57;;;;;;;9.00;2.45;;;;;;;16.94;100.00;100640.84;5050250;28;20052;-56
2023/09/20 01:35:27;;;;;;;8.00;2.35;;;;;;;16.88;100.00;100644.91;5053143;28;20081;-55
2023/09/20 01:37:58;;;;;;;8.93;2.50;;;;;;;16.87;100.00;100640.56;5048981;28;20055;-55
2023/09/20 01:40:33;;;;;;;11.38;2.17;;;;;;;16.78;100.00;100630.81;5048607;28;20530;-55
2023/09/20 01:43:03;;;;;;;7.90;2.33;;;;;;;16.72;100.00;100638.38;5050437;28;20029;-56
2023/09/20 01:45:34;;;;;;;7.43;2.20;;;;;;;16.73;100.00;100633.91;5051709;28;20111;-55
2023/09/20 01:48:06;;;;;;;7.68;2.10;;;;;;;16.66;100.00;100633.66;5053085;28;20048;-55
2023/09/20 01:50:36;;;;;;;11.13;2.28;;;;;;;16.63;100.00;100622.47;5052841;28;20075;-56
2023/09/20 01:53:08;;;;;;;8.20;2.70;;;;;;;16.58;100.00;100624.72;5052630;28;20049;-56
2023/09/20 01:55:38;;;;;;;9.02;2.63;;;;;;;16.55;100.00;100617.88;5052719;28;20056;-55
2023/09/20 01:58:06;;;;;;;10.18;2.65;;;;;;;16.56;100.00;100624.88;5049777;28;20049;-56
2023/09/20 02:00:38;;;;;;;8.30;2.70;;;;;;;16.50;100.00;100617.50;5049730;28;20528;-56
2023/09/20 02:03:09;;;;;;;8.60;2.40;;;;;;;16.48;100.00;100627.41;5050132;28;20048;-56
2023/09/20 02:05:38;;;;;;;8.52;2.63;;;;;;;16.40;100.00;100612.19;5046245;28;20049;-56
2023/09/20 02:08:08;;;;;;;7.60;2.20;;;;;;;16.39;100.00;100619.34;5048768;28;20394;-55
2023/09/20 02:10:38;;;;;;;8.25;2.40;;;;;;;16.26;100.00;100620.63;5052172;28;20037;-55
2023/09/20 02:13:07;;;;;;;8.52;2.40;;;;;;;16.28;100.00;100611.53;5050721;28;20037;-54
2023/09/20 02:15:36;;;;;;;8.32;2.65;;;;;;;16.22;100.00;100620.06;5049245;28;20048;-56
2023/09/20 02:18:05;;;;;;;9.70;2.65;;;;;;;16.23;100.00;100605.81;5050926;28;20444;-56
2023/09/20 02:20:36;;;;;;;7.13;2.20;;;;;;;16.23;100.00;100603.16;5050754;28;20060;-56
2023/09/20 02:23:08;;;;;;;6.28;1.90;;;;;;;16.18;100.00;100613.38;5047143;28;20112;-55
2023/09/20 02:25:36;;;;;;;7.47;2.28;;;;;;;16.15;100.00;100613.66;5047732;28;20056;-56
2023/09/20 02:28:07;;;;;;;9.20;2.60;;;;;;;16.07;100.00;100619.66;5048706;28;20058;-55
2023/09/20 02:30:38;;;;;;;8.70;2.42;;;;;;;16.11;100.00;100609.63;5049315;28;20099;-56
2023/09/20 02:33:10;;;;;;;11.35;2.28;;;;;;;16.01;100.00;100615.75;5049034;28;20055;-55
2023/09/20 02:35:39;;;;;;;7.93;2.30;;;;;;;15.95;100.00;100603.09;5047317;28;20532;-56
2023/09/20 02:38:09;;;;;;;6.13;2.20;;;;;;;16.01;100.00;100617.59;5052525;28;20052;-56
2023/09/20 02:40:38;;;;;;;6.82;2.15;;;;;;;15.95;100.00;100611.03;5053764;28;20419;-53
2023/09/20 02:43:08;;;;;;;9.15;2.33;;;;;;;15.87;100.00;100613.56;5052224;28;20120;-55
2023/09/20 02:45:39;;;;;;;7.65;2.33;;;;;;;15.86;100.00;100615.34;5049349;28;20049;-54
2023/09/20 02:48:09;;;;;;;10.48;2.50;;;;;;;15.85;100.00;100600.41;5048871;28;20120;-55
2023/09/20 02:50:41;;;;;;;8.18;2.25;;;;;;;15.75;100.00;100599.56;5048417;28;20098;-56
2023/09/20 02:53:12;;;;;;;6.35;2.20;;;;;;;15.72;100.00;100595.38;5048684;28;20056;-56
2023/09/20 02:55:40;;;;;;;7.20;2.13;;;;;;;15.67;100.00;100597.59;5047132;28;20087;-56
2023/09/20 02:58:09;;;;;;;9.35;2.30;;;;;;;15.65;100.00;100596.06;5049617;28;20048;-55
2023/09/20 03:00:38;;;;;;;7.38;2.45;;;;;;;15.61;100.00;100597.31;5046390;28;20518;-55
2023/09/20 03:03:08;;;;;;;9.77;2.25;;;;;;;15.61;100.00;100590.22;5048667;28;20591;-54
2023/09/20 03:05:37;;;;;;;8.70;2.13;;;;;;;15.55;100.00;100578.34;5048462;28;20148;-54
2023/09/20 03:08:11;;;;;;;9.32;2.30;;;;;;;15.65;100.00;100585.47;5048375;28;20056;-57
2023/09/20 03:10:42;;;;;;;6.68;2.00;;;;;;;15.63;100.00;100574.16;5045469;28;20049;-55
2023/09/20 03:13:16;;;;;;;9.50;2.40;;;;;;;15.57;100.00;100577.38;5048473;28;20057;-56
2023/09/20 03:15:51;;;;;;;6.82;2.05;;;;;;;15.51;100.00;100579.59;5047097;28;20102;-57
2023/09/20 03:18:22;;;;;;;8.05;2.20;;;;;;;15.48;100.00;100571.91;5046975;28;20416;-56
2023/09/20 03:20:52;;;;;;;10.75;2.00;;;;;;;15.43;100.00;100571.50;5047230;28;20052;-55
2023/09/20 03:23:22;;;;;;;7.25;1.85;;;;;;;15.49;100.00;100573.59;5046935;28;20040;-54
2023/09/20 03:25:52;;;;;;;4.82;1.75;;;;;;;15.47;100.00;100569.41;5050422;28;20530;-55
2023/09/20 03:28:24;;;;;;;9.90;2.63;;;;;;;15.45;100.00;100568.72;5052374;28;20383;-54
2023/09/20 03:30:53;;;;;;;7.10;2.42;;;;;;;15.41;100.00;100567.34;5051686;28;20094;-56
2023/09/20 03:33:23;;;;;;;10.57;2.35;;;;;;;15.37;100.00;100559.63;5052840;28;20045;-54
2023/09/20 03:35:52;;;;;;;9.20;2.30;;;;;;;15.45;100.00;100576.69;5051653;28;20155;-56
2023/09/20 03:38:20;;;;;;;10.52;2.80;;;;;;;15.37;100.00;100564.09;5051889;28;20045;-55
2023/09/20 03:40:48;;;;;;;8.90;2.80;;;;;;;15.33;100.00;100568.00;5050484;28;20124;-56
2023/09/20 03:43:18;;;;;;;8.20;2.65;;;;;;;15.34;100.00;100570.53;5051296;28;20049;-55
2023/09/20 03:45:47;;;;;;;6.80;2.13;;;;;;;15.37;100.00;100570.22;5049609;28;20045;-55
2023/09/20 03:48:15;;;;;;;6.25;1.98;;;;;;;15.35;100.00;100571.34;5052207;28;20056;-54
2023/09/20 03:50:45;;;;;;;7.05;2.33;;;;;;;15.37;100.00;100570.22;5051684;28;20037;-54
2023/09/20 03:53:13;;;;;;;9.82;2.53;;;;;;;15.40;100.00;100565.66;5050855;28;20046;-54
2023/09/20 03:55:48;;;;;;;9.70;2.20;;;;;;;15.35;100.00;100569.56;5050785;28;20542;-55
2023/09/20 03:58:18;;;;;;;6.97;2.27;;;;;;;15.43;100.00;100566.19;5051491;28;20049;-55
2023/09/20 04:00:47;;;;;;;8.32;2.17;;;;;;;15.40;100.00;100563.00;5050850;28;20601;-55
2023/09/20 04:03:16;;;;;;;5.75;2.60;;;;;;;15.36;100.00;100563.25;5051824;28;20041;-54
2023/09/20 04:05:46;;;;;;;6.95;2.00;;;;;;;15.35;100.00;100558.09;5051738;28;20500;-55
2023/09/20 04:08:16;;;;;;;9.80;2.65;;;;;;;15.28;100.00;100555.16;5051171;28;20045;-55
2023/09/20 04:10:45;;;;;;;8.85;2.67;;;;;;;15.36;100.00;100554.47;5047049;28;20036;-56
2023/09/20 04:13:14;;;;;;;7.90;2.08;;;;;;;15.32;100.00;100553.91;5051790;28;20111;-56
2023/09/20 04:15:45;;;;;;;7.82;2.47;;;;;;;15.38;100.00;100547.25;5051241;28;20060;-55
2023/09/20 04:18:15;;;;;;;8.38;2.25;;;;;;;15.42;100.00;100545.13;5050869;28;20045;-54
2023/09/20 04:20:46;;;;;;;9.57;2.80;;;;;;;15.44;100.00;100541.38;5051411;28;20045;-55
2023/09/20 04:23:16;;;;;;;10.73;2.90;;;;;;;15.44;100.00;100549.31;5051174;28;20040;-54
2023/09/20 04:25:45;;;;;;;7.18;2.42;;;;;;;15.41;100.00;100546.13;5049941;28;20041;-55
2023/09/20 04:28:16;;;;;;;6.20;2.40;;;;;;;15.38;100.00;100542.78;5050097;28;20049;-56
2023/09/20 04:30:47;;;;;;;10.18;2.97;;;;;;;15.35;100.00;100540.41;5051688;28;20049;-55
2023/09/20 04:33:16;;;;;;;8.40;2.55;;;;;;;15.40;100.00;100541.81;5051049;28;20049;-56
2023/09/20 04:35:47;;;;;;;8.40;2.20;;;;;;;15.38;100.00;100542.78;5050710;28;20106;-55
2023/09/20 04:38:16;;;;;;;6.90;2.65;;;;;;;15.46;100.00;100544.75;5051517;28;20518;-55
2023/09/20 04:40:44;;;;;;;8.05;2.67;;;;;;;15.46;100.00;100541.22;5049866;28;20116;-56
2023/09/20 04:43:14;;;;;;;6.20;2.60;;;;;;;15.35;100.00;100540.41;5050288;28;20126;-54
2023/09/20 04:45:43;;;;;;;11.43;2.75;;;;;;;15.41;100.00;100532.88;5050780;28;20373;-57
2023/09/20 04:48:13;;;;;;;8.18;2.47;;;;;;;15.36;100.00;100536.75;5050336;28;20495;-56
2023/09/20 04:50:41;;;;;;;10.30;2.70;;;;;;;15.35;100.00;100527.16;5050032;28;20551;-56
2023/09/20 04:53:09;;;;;;;8.80;2.78;;;;;;;15.43;100.00;100530.91;5049896;28;20049;-55
2023/09/20 04:55:38;;;;;;;8.98;2.72;;;;;;;15.35;100.00;100534.25;5049101;28;20040;-55
2023/09/20 04:58:07;;;;;;;7.90;2.67;;;;;;;15.36;100.00;100530.63;5050131;28;20082;-56
2023/09/20 05:00:37;;;;;;;9.48;3.00;;;;;;;15.40;100.00;100536.50;5050072;28;20049;-55
2023/09/20 05:03:05;;;;;;;10.07;2.40;;;;;;;15.41;100.00;100541.66;5050304;28;20048;-54
2023/09/20 05:05:35;;;;;;;11.32;2.95;;;;;;;15.31;100.00;100540.81;5049867;28;20044;-55
2023/09/20 05:08:05;;;;;;;12.02;2.83;;;;;;;15.31;100.00;100543.44;5049890;28;20106;-56
2023/09/20 05:10:33;;;;;;;9.30;2.83;;;;;;;15.28;100.00;100539.25;5048554;28;20047;-55
2023/09/20 05:13:01;;;;;;;12.13;2.90;;;;;;;15.32;100.00;100543.31;5050481;28;20467;-56
2023/09/20 05:15:30;;;;;;;10.57;2.83;;;;;;;15.29;100.00;100540.94;5049814;28;20576;-54
2023/09/20 05:17:58;;;;;;;13.35;4.05;;;;;;;15.28;100.00;100533.97;5048589;28;20154;-56
2023/09/20 05:20:28;;;;;;;9.00;2.45;;;;;;;15.25;100.00;100544.03;5049057;28;20053;-55
2023/09/20 05:22:59;;;;;;;9.02;2.55;;;;;;;15.28;100.00;100541.91;5048686;28;20105;-55
2023/09/20 05:25:27;;;;;;;7.22;2.38;;;;;;;15.21;100.00;100548.75;5047890;28;20059;-55
2023/09/20 05:27:55;;;;;;;11.35;2.90;;;;;;;15.17;100.00;100544.69;5049005;28;20135;-56
2023/09/20 05:30:24;;;;;;;6.47;2.70;;;;;;;15.28;100.00;100541.09;5049039;28;20063;-56
2023/09/20 05:32:53;;;;;;;11.55;3.25;;;;;;;15.16;100.00;100543.00;5049614;28;20125;-56
2023/09/20 05:35:21;;;;;;;7.13;2.78;;;;;;;15.17;100.00;100550.00;5049012;28;20146;-56
2023/09/20 05:37:50;;;;;;;9.05;2.50;;;;;;;15.17;100.00;100536.75;5050012;28;20455;-56
2023/09/20 05:40:22;;;;;;;9.30;2.70;;;;;;;15.13;100.00;100545.94;5048392;28;20586;-54
2023/09/20 05:42:52;;;;;;;5.90;2.58;;;;;;;15.12;100.00;100542.47;5049564;28;20073;-57
2023/09/20 05:45:20;;;;;;;9.80;2.75;;;;;;;15.23;100.00;100536.22;5050203;28;20041;-57
2023/09/20 05:47:49;;;;;;;7.70;2.67;;;;;;;15.22;100.00;100534.53;5048976;28;20057;-55
2023/09/20 05:50:23;;;;;;;10.02;2.38;;;;;;;15.20;100.00;100531.16;5048176;28;20110;-55
2023/09/20 05:52:52;;;;;;;8.77;2.67;;;;;;;15.19;100.00;100537.47;5039954;28;20041;-53
2023/09/20 05:55:23;;;;;;;9.82;2.85;;;;;;;15.21;100.00;100532.84;5047678;28;20044;-54
2023/09/20 05:57:53;;;;;;;6.05;2.38;;;;;;;15.19;100.00;100526.88;5049001;28;20511;-56
2023/09/20 06:00:22;;;;;;;10.75;2.80;;;;;;;15.25;100.00;100531.59;5054433;28;20116;-55
2023/09/20 06:02:51;;;;;;;10.85;3.03;;;;;;;15.31;100.00;100520.47;5047785;28;20059;-55
2023/09/20 06:05:19;;;;;;;13.15;3.60;;;;;;;15.30;100.00;100531.22;5048350;28;20060;-55
2023/09/20 06:07:48;;;;;;;7.03;2.78;;;;;;;15.35;100.00;100529.81;5049984;28;20450;-54
2023/09/20 06:10:17;;;;;;;9.40;2.92;;;;;;;15.45;100.00;100526.34;5048171;28;20061;-56
2023/09/20 06:12:47;;;;;;;8.77;2.72;;;;;;;15.57;100.00;100530.50;5049354;28;20044;-55
2023/09/20 06:15:15;;;;;;;9.80;2.70;;;;;;;15.60;100.00;100527.56;5071026;28;20049;-54
2023/09/20 06:17:44;;;;;;;11.65;3.03;;;;;;;15.68;100.00;100534.84;5048403;28;20044;-55
2023/09/20 06:20:19;;;;;;;8.75;3.15;;;;;;;15.72;100.00;100528.28;5047722;28;20839;-55
2023/09/20 06:22:48;;;;;;;12.68;3.00;;;;;;;15.91;100.00;100530.09;5044566;28;20044;-55
2023/09/20 06:25:19;;;;;;;6.07;2.60;;;;;;;15.90;100.00;100536.38;5051831;28;20494;-55
2023/09/20 06:27:50;;;;;;;13.32;3.00;;;;;;;15.93;100.00;100522.00;5049698;28;20148;-55
2023/09/20 06:30:20;;;;;;;8.77;2.70;;;;;;;15.97;100.00;100523.38;5048354;28;20056;-56
2023/09/20 06:32:51;;;;;;;9.07;2.58;;;;;;;16.05;100.00;100520.84;5049113;28;20055;-56
2023/09/20 06:35:22;;;;;;;10.95;2.60;;;;;;;16.11;100.00;100527.38;5048284;28;20060;-55
2023/09/20 06:37:51;;;;;;;9.40;2.80;;;;;;;16.18;100.00;100521.38;5049200;28;20406;-56
2023/09/20 06:40:22;;;;;;;10.52;2.92;;;;;;;16.25;100.00;100526.91;5048876;28;20512;-56
2023/09/20 06:42:53;;;;;;;6.90;2.50;;;;;;;16.36;100.00;100525.91;5051447;28;20063;-54
2023/09/20 06:45:24;;;;;;;7.53;2.30;;;;;;;16.40;100.00;100527.28;5049806;28;20480;-54
2023/09/20 06:47:52;;;;;;;10.00;2.65;;;;;;;16.55;100.00;100519.66;5048451;28;21542;-54
2023/09/20 06:50:23;;;;;;;8.45;2.80;;;;;;;16.49;100.00;100528.25;5049698;28;20560;-56
2023/09/20 06:52:54;;;;;;;10.23;3.03;;;;;;;16.63;100.00;100529.56;5051338;28;20037;-54
2023/09/20 06:55:25;;;;;;;9.88;2.60;;;;;;;16.67;100.00;100528.28;5046559;28;20522;-55
2023/09/20 06:57:55;;;;;;;8.60;2.80;;;;;;;16.72;100.00;100518.88;5047523;28;20079;-54
2023/09/20 07:00:41;;;;;;;10.27;2.90;;;;;;;16.85;100.00;100521.22;5050421;28;20150;-55
2023/09/20 07:03:10;;;;;;;8.32;2.75;;;;;;;16.87;100.00;100527.19;5050683;28;20041;-55
2023/09/20 07:05:38;;;;;;;7.85;2.38;;;;;;;16.95;100.00;100521.19;5051093;28;20087;-56
2023/09/20 07:08:08;;;;;;;7.88;2.33;;;;;;;17.03;100.00;100518.63;5048877;28;20480;-54
2023/09/20 07:10:36;;;;;;;7.18;2.45;;;;;;;17.10;100.00;100524.16;5047085;28;20145;-53
2023/09/20 07:13:09;;;;;;;6.07;2.65;;;;;;;17.10;100.00;100524.16;5051983;28;20041;-55
2023/09/20 07:15:39;;;;;;;;;;;;;;;17.24;100.00;100528.13;5049677;28;20149;-53
2023/09/20 07:18:12;;;;;;;9.77;2.50;;;;;;;17.31;100.00;100523.84;5048868;28;20219;-56
2023/09/20 07:20:45;;;;;;;7.55;2.67;;;;;;;17.42;100.00;100532.59;5047625;28;20400;-54
2023/09/20 07:23:15;;;;;;;10.75;2.65;;;;;;;17.55;100.00;100525.09;5049696;28;20051;-54
2023/09/20 07:25:44;;;;;;;8.30;2.40;;;;;;;17.72;100.00;100526.03;5049161;28;20041;-55
2023/09/20 07:28:14;;;;;;;7.78;2.70;;;;;;;17.82;100.00;100510.84;5047973;28;20043;-55
2023/09/20 07:30:44;;;;;;;5.28;2.28;;;;;;;17.97;100.00;100515.59;5050196;28;20441;-54
2023/09/20 07:33:19;;;;;;;6.28;2.45;;;;;;;18.05;100.00;100515.66;5050557;28;20045;-55
2023/09/20 07:35:48;;;;;;;6.75;2.47;;;;;;;18.06;100.00;100523.50;5051859;28;20110;-55
2023/09/20 07:38:25;;;;;;;5.97;2.40;;;;;;;18.04;100.00;100525.47;5032115;28;20065;-56
2023/09/20 07:41:12;;;;;;;8.18;2.35;;;;;;;18.16;100.00;100528.72;5032051;28;20045;-56
2023/09/20 07:43:47;;;;;;;6.75;2.13;;;;;;;18.08;100.00;100526.81;5029096;28;20060;-55
2023/09/20 07:46:16;;;;;;;7.75;2.05;;;;;;;18.06;100.00;100531.47;5029524;28;20049;-54
2023/09/20 07:48:48;;;;;;;10.07;2.70;;;;;;;17.97;100.00;100527.09;5035979;28;20539;-55
2023/09/20 07:51:24;;;;;;;6.45;2.28;;;;;;;18.11;100.00;100519.53;5048848;28;20741;-54
2023/09/20 07:53:54;;;;;;;5.43;2.42;;;;;;;18.19;100.00;100525.72;5051758;28;20550;-55
2023/09/20 07:56:24;;;;;;;7.63;2.40;;;;;;;18.38;100.00;100511.34;5051735;28;20041;-55
2023/09/20 07:58:54;;;;;;;7.70;2.30;;;;;;;18.40;100.00;100519.19;5050256;28;20476;-56
2023/09/20 08:01:24;;;;;;;5.60;2.25;;;;;;;18.45;100.00;100521.34;5049061;28;20045;-56
2023/09/20 08:03:58;;;;;;;6.97;2.30;;;;;;;18.62;100.00;100514.28;5048560;28;20041;-55
2023/09/20 08:06:29;;;;;;;5.90;2.10;;;;;;;18.69;100.00;100513.50;5047835;28;20107;-55
2023/09/20 08:08:57;;;;;;;8.52;2.30;;;;;;;18.79;100.00;100507.16;5051029;28;20049;-55
2023/09/20 08:11:26;;;;;;;5.13;2.03;;;;;;;18.92;100.00;100510.25;5050915;28;20060;-56
2023/09/20 08:13:59;;;;;;;10.20;2.40;;;;;;;19.09;100.00;100503.13;5052584;28;20399;-56
2023/09/20 08:16:32;;;;;;;;;;;;;;;19.34;100.00;100503.97;5052000;28;20107;-55
2023/09/20 08:19:21;;;;;;;4.90;1.80;;;;;;;19.67;100.00;100506.66;5052571;28;19928;-54
2023/09/20 08:21:50;;;;;;;5.97;1.70;;;;;;;19.97;100.00;100500.81;5051973;28;20045;-55
2023/09/20 09:00:31;;;;;;;5.10;1.83;;;;;;;20.63;100.00;100532.66;5048088;28;20567;-56
2023/09/20 09:03:03;;;;;;;8.43;2.00;;;;;;;20.52;100.00;100533.84;5050341;28;20045;-55
2023/09/20 09:05:33;;;;;;;5.78;1.60;;;;;;;20.42;100.00;100540.25;5048613;28;20155;-57
2023/09/20 09:08:03;;;;;;;6.28;1.67;;;;;;;20.57;100.00;100551.06;5049626;28;20073;-55
2023/09/20 09:10:31;;;;;;;4.93;1.92;;;;;;;20.47;100.00;100545.06;5046561;28;20143;-55
2023/09/20 09:13:00;;;;;;;8.57;1.80;;;;;;;20.39;100.00;100545.09;5047861;28;20052;-55
2023/09/20 09:15:28;;;;;;;8.13;1.90;;;;;;;20.52;100.00;100540.03;5049037;28;20045;-56
2023/09/20 09:17:56;;;;;;;7.03;1.50;;;;;;;20.35;100.00;100531.25;5050669;28;20056;-55
2023/09/20 09:20:29;;;;;;;6.85;1.98;;;;;;;20.37;100.00;100537.25;5049491;28;20045;-55
2023/09/20 09:22:58;;;;;;;5.65;2.08;;;;;;;20.52;100.00;100540.03;5050507;28;20556;-55
2023/09/20 09:25:30;;;;;;;8.02;1.75;;;;;;;20.64;100.00;100537.81;5049391;28;20072;-55
2023/09/20 09:27:59;;;;;;;5.72;1.80;;;;;;;20.84;100.00;100537.44;5049647;28;20491;-55
2023/09/20 09:30:33;;;;;;;7.68;1.75;;;;;;;20.84;100.00;100540.09;5049667;28;20480;-56
2023/09/20 09:33:04;;;;;;;5.82;1.70;;;;;;;20.85;100.00;100544.44;5049057;28;20103;-55
2023/09/20 09:35:35;;;;;;;5.53;2.05;;;;;;;20.68;100.00;100547.19;5048854;28;20049;-56
2023/09/20 09:38:20;;;;;;;7.38;2.20;;;;;;;20.71;100.00;100552.19;5050445;28;20059;-57
2023/09/20 09:40:53;;;;;;;10.48;2.10;;;;;;;20.61;100.00;100551.53;5048716;28;20432;-55
2023/09/20 09:43:23;;;;;;;9.35;2.70;;;;;;;20.66;100.00;100549.16;5052522;28;20128;-56
2023/09/20 09:45:54;;;;;;;6.50;1.92;;;;;;;20.86;100.00;100549.63;5049680;28;20040;-56
2023/09/20 09:48:27;;;;;;;5.60;2.25;;;;;;;20.63;100.00;100544.19;5048795;28;20033;-54
2023/09/20 09:50:59;;;;;;;6.53;2.00;;;;;;;20.97;100.00;100532.34;5049829;28;20048;-56
2023/09/20 09:53:29;;;;;;;5.28;2.15;;;;;;;21.08;100.00;100531.94;5048490;28;20128;-56
2023/09/20 09:55:59;;;;;;;6.00;2.55;;;;;;;21.06;100.00;100525.94;5047487;28;20492;-56
2023/09/20 09:58:28;;;;;;;6.97;2.22;;;;;;;21.24;100.00;100524.81;5049060;28;20053;-54
2023/09/20 10:00:57;;;;;;;7.68;2.53;;;;;;;21.07;100.00;100522.25;5050350;28;20063;-55
2023/09/20 10:03:32;;;;;;;6.65;2.50;;;;;;;21.22;100.00;100518.84;5052329;28;20083;-56
2023/09/20 10:06:09;;;;;;;8.70;2.65;;;;;;;21.24;100.00;100524.81;5049608;28;20060;-56
2023/09/20 10:08:39;;;;;;;4.90;2.17;;;;;;;21.32;100.00;100522.09;5050100;28;20127;-56
2023/09/20 10:11:09;;;;;;;8.45;2.88;;;;;;;21.35;100.00;100520.91;5048559;28;20077;-56
2023/09/20 10:13:40;;;;;;;6.93;2.17;;;;;;;21.23;100.00;100513.31;5049143;28;20053;-56
2023/09/20 10:16:10;;;;;;;17.60;2.50;;;;;;;21.40;100.00;100510.50;5049750;28;20107;-55
2023/09/20 10:18:57;;;;;;;6.47;2.17;;;;;;;21.65;100.00;100513.84;5049395;28;20139;-56
2023/09/20 10:21:31;;;;;;;6.43;2.20;;;;;;;21.85;100.00;100510.66;5046153;28;20110;-55
2023/09/20 10:24:07;;;;;;;9.45;2.20;;;;;;;21.71;100.00;100509.63;5047576;28;20032;-56
2023/09/20 10:26:39;;;;;;;6.20;2.42;;;;;;;21.91;100.00;100516.13;5047277;28;20045;-56
2023/09/20 10:29:23;;;;;;;6.30;2.30;;;;;;;21.96;100.00;100523.59;5047560;28;20076;-56
2023/09/20 10:31:55;;;;;;;5.90;2.13;;;;;;;22.04;100.00;100507.44;5047447;28;20087;-56
2023/09/20 10:34:25;;;;;;;6.65;2.38;;;;;;;22.10;100.00;100511.22;5048899;28;20048;-56
2023/09/20 10:36:57;;;;;;;5.18;2.08;;;;;;;22.27;100.00;100509.22;5047780;28;20067;-56
2023/09/20 10:39:29;;;;;;;5.57;1.90;;;;;;;22.48;100.00;100499.63;5044660;28;20139;-55
2023/09/20 10:42:09;;;;;;;6.30;2.23;;;;;;;22.58;100.00;100495.63;5046137;28;20040;-57
2023/09/20 10:44:41;;;;;;;6.40;2.00;;;;;;;22.41;100.00;100500.34;5047802;28;20478;-56
2023/09/20 10:47:14;;;;;;;7.15;2.00;;;;;;;22.32;100.00;100500.59;5048680;28;20099;-55
2023/09/20 10:49:47;;;;;;;6.15;1.88;;;;;;;22.40;100.00;100489.81;5048383;28;20128;-55
2023/09/20 10:52:50;;;;;;;6.00;1.88;;;;;;;22.69;100.00;100491.63;5048294;28;20037;-53
2023/09/20 10:55:39;;;;;;;6.60;2.00;;;;;;;23.06;100.00;100487.09;5039102;28;20048;-56
2023/09/20 10:58:08;;;;;;;6.50;1.75;;;;;;;23.18;100.00;100483.91;5050534;28;20114;-56
2023/09/20 11:00:37;;;;;;;5.28;1.60;;;;;;;23.42;100.00;100483.53;5051122;28;20033;-55
2023/09/20 11:03:07;;;;;;;6.90;2.08;;;;;;;23.82;100.00;100479.50;5050559;28;20120;-57
2023/09/20 11:05:37;;;;;;;3.80;1.50;;;;;;;23.70;100.00;100480.03;5049544;28;20048;-56
2023/09/20 11:08:08;;;;;;;6.95;1.70;;;;;;;23.42;100.00;100472.81;5047721;28;20061;-56
2023/09/20 11:10:41;;;;;;;4.03;1.20;;;;;;;23.63;100.00;100484.53;5048337;28;20048;-56
2023/09/20 11:13:14;;;;;;;4.03;1.58;;;;;;;23.71;100.00;100486.22;5048733;28;20053;-57
2023/09/20 11:15:48;;;;;;;5.03;1.90;;;;;;;23.90;100.00;100471.31;5029612;28;20121;-56
2023/09/20 11:18:19;;;;;;;4.18;1.60;;;;;;;23.99;100.00;100475.50;5039002;28;20079;-55
2023/09/20 11:20:48;;;;;;;6.78;1.80;;;;;;;24.00;100.00;100466.44;5051100;28;20150;-56
2023/09/20 11:23:17;;;;;;;4.82;1.60;;;;;;;23.97;100.00;100466.84;5049234;28;20121;-54
2023/09/20 11:25:48;;;;;;;6.38;1.67;;;;;;;24.22;100.00;100464.47;5048277;28;20047;-55
2023/09/20 11:28:18;;;;;;;;;;;;;;;24.42;100.00;100453.00;5049819;28;20106;-55
2023/09/20 11:30:51;;;;;;;5.10;1.60;;;;;;;24.30;100.00;100456.25;5049164;28;19920;-54
2023/09/20 11:33:29;;;;;;;5.13;1.60;;;;;;;24.10;100.00;100464.19;5048479;28;20049;-56
2023/09/20 11:36:00;;;;;;;4.95;1.40;;;;;;;23.67;100.00;100468.84;5045826;28;20071;-55
2023/09/20 11:38:28;;;;;;;5.05;1.42;;;;;;;23.62;100.00;100458.72;5050217;28;20049;-56
2023/09/20 11:40:59;;;;;;;5.55;1.58;;;;;;;23.66;100.00;100468.03;5045158;28;20056;-56
2023/09/20 11:43:30;;;;;;;4.55;1.35;;;;;;;23.76;100.00;100471.22;5046627;28;20049;-55
2023/09/20 11:45:58;;;;;;;3.28;1.40;;;;;;;23.60;100.00;100468.81;5050848;28;20048;-54
2023/09/20 11:48:29;;;;;;;6.45;1.85;;;;;;;23.67;100.00;100453.59;5051857;28;20079;-54
2023/09/20 11:50:57;;;;;;;6.13;1.52;;;;;;;23.44;100.00;100451.97;5052023;28;20067;-56
2023/09/20 11:53:29;;;;;;;3.63;1.40;;;;;;;23.71;100.00;100440.59;5051474;28;20053;-54
2023/09/20 11:56:03;;;;;;;3.95;1.40;;;;;;;23.71;100.00;100440.59;5049824;28;20045;-55
2023/09/20 11:58:33;;;;;;;4.78;1.35;;;;;;;24.04;100.00;100430.09;5051520;28;20049;-55
2023/09/20 12:01:03;;;;;;;3.95;1.52;;;;;;;24.04;100.00;100430.09;5051000;28;20041;-55
2023/09/20 12:03:34;;;;;;;5.03;1.35;;;;;;;24.11;100.00;100422.88;5052459;28;20136;-55
2023/09/20 12:06:03;;;;;;;8.02;1.80;;;;;;;24.06;100.00;100421.84;5054155;28;20036;-55
2023/09/20 12:08:32;;;;;;;2.97;1.45;;;;;;;24.14;100.00;100425.16;5054024;28;20115;-55